sensor_id;sensor_type;location;lat;lon;timestamp;P1;durP1;ratioP1;P2;durP2;ratioP2
59388;SDS011;51830;45.202;19.720;2022-09-02T00:00:22;13.73;;;3.92;;
59388;SDS011;51830;45.202;19.720;2022-09-02T00:02:50;17.15;;;4.35;;
59388;SDS011;51830;45.202;19.720;2022-09-02T00:05:20;12.85;;;3.60;;
59388;SDS011;51830;45.202;19.720;2022-09-02T00:07:47;14.02;;;3.78;;
59388;SDS011;51830;45.202;19.720;2022-09-02T00:10:15;11.93;;;3.40;;
59388;SDS011;51830;45.202;19.720;2022-09-02T00:12:42;13.18;;;3.70;;
59388;SDS011;51830;45.202;19.720;2022-09-02T00:15:09;12.63;;;3.67;;
59388;SDS011;51830;45.202;19.720;2022-09-02T00:17:38;17.42;;;4.10;;
59388;SDS011;51830;45.202;19.720;2022-09-02T00:20:08;14.00;;;3.70;;
59388;SDS011;51830;45.202;19.720;2022-09-02T00:22:35;12.85;;;3.63;;
59388;SDS011;51830;45.202;19.720;2022-09-02T00:25:06;13.90;;;3.90;;
59388;SDS011;51830;45.202;19.720;2022-09-02T00:27:34;13.32;;;4.10;;
59388;SDS011;51830;45.202;19.720;2022-09-02T00:30:04;12.70;;;3.63;;
59388;SDS011;51830;45.202;19.720;2022-09-02T00:32:31;12.98;;;3.80;;
59388;SDS011;51830;45.202;19.720;2022-09-02T00:34:59;16.17;;;3.95;;
59388;SDS011;51830;45.202;19.720;2022-09-02T00:37:26;13.18;;;3.67;;
59388;SDS011;51830;45.202;19.720;2022-09-02T00:39:56;14.93;;;4.00;;
59388;SDS011;51830;45.202;19.720;2022-09-02T00:42:24;13.43;;;4.00;;
59388;SDS011;51830;45.202;19.720;2022-09-02T00:44:54;12.68;;;3.65;;
59388;SDS011;51830;45.202;19.720;2022-09-02T00:47:21;13.50;;;3.92;;
59388;SDS011;51830;45.202;19.720;2022-09-02T00:49:49;12.07;;;3.60;;
59388;SDS011;51830;45.202;19.720;2022-09-02T00:52:28;13.63;;;4.10;;
59388;SDS011;51830;45.202;19.720;2022-09-02T00:54:57;16.80;;;4.10;;
59388;SDS011;51830;45.202;19.720;2022-09-02T00:57:28;13.75;;;4.07;;
59388;SDS011;51830;45.202;19.720;2022-09-02T01:00:14;17.30;;;3.53;;
59388;SDS011;51830;45.202;19.720;2022-09-02T01:02:50;12.73;;;3.45;;
59388;SDS011;51830;45.202;19.720;2022-09-02T01:05:22;14.68;;;3.80;;
59388;SDS011;51830;45.202;19.720;2022-09-02T01:07:52;12.80;;;3.72;;
59388;SDS011;51830;45.202;19.720;2022-09-02T01:10:21;13.30;;;3.88;;
59388;SDS011;51830;45.202;19.720;2022-09-02T01:12:48;13.98;;;4.00;;
59388;SDS011;51830;45.202;19.720;2022-09-02T01:15:16;14.10;;;4.00;;
59388;SDS011;51830;45.202;19.720;2022-09-02T01:17:45;13.88;;;4.15;;
59388;SDS011;51830;45.202;19.720;2022-09-02T01:20:17;13.65;;;3.75;;
59388;SDS011;51830;45.202;19.720;2022-09-02T01:22:46;13.98;;;3.80;;
59388;SDS011;51830;45.202;19.720;2022-09-02T01:25:16;15.63;;;3.80;;
59388;SDS011;51830;45.202;19.720;2022-09-02T01:27:44;14.27;;;4.05;;
59388;SDS011;51830;45.202;19.720;2022-09-02T01:30:18;15.75;;;4.28;;
59388;SDS011;51830;45.202;19.720;2022-09-02T01:32:47;15.57;;;4.55;;
59388;SDS011;51830;45.202;19.720;2022-09-02T01:35:15;14.45;;;3.97;;
59388;SDS011;51830;45.202;19.720;2022-09-02T01:37:45;15.13;;;3.92;;
59388;SDS011;51830;45.202;19.720;2022-09-02T01:40:16;15.52;;;4.28;;
59388;SDS011;51830;45.202;19.720;2022-09-02T01:42:46;12.40;;;3.47;;
59388;SDS011;51830;45.202;19.720;2022-09-02T01:45:16;14.52;;;4.07;;
59388;SDS011;51830;45.202;19.720;2022-09-02T01:47:46;13.02;;;3.65;;
59388;SDS011;51830;45.202;19.720;2022-09-02T01:50:16;14.32;;;4.25;;
59388;SDS011;51830;45.202;19.720;2022-09-02T01:52:47;17.02;;;4.30;;
59388;SDS011;51830;45.202;19.720;2022-09-02T01:55:17;13.95;;;3.95;;
59388;SDS011;51830;45.202;19.720;2022-09-02T01:57:46;14.00;;;4.18;;
59388;SDS011;51830;45.202;19.720;2022-09-02T02:00:16;13.60;;;3.83;;
59388;SDS011;51830;45.202;19.720;2022-09-02T02:02:46;14.63;;;3.70;;
59388;SDS011;51830;45.202;19.720;2022-09-02T02:05:17;12.63;;;3.90;;
59388;SDS011;51830;45.202;19.720;2022-09-02T02:07:44;15.05;;;4.25;;
59388;SDS011;51830;45.202;19.720;2022-09-02T02:10:14;14.48;;;3.95;;
59388;SDS011;51830;45.202;19.720;2022-09-02T02:12:45;14.63;;;4.40;;
59388;SDS011;51830;45.202;19.720;2022-09-02T02:15:16;13.95;;;4.18;;
59388;SDS011;51830;45.202;19.720;2022-09-02T02:17:46;12.90;;;3.95;;
59388;SDS011;51830;45.202;19.720;2022-09-02T02:20:16;13.13;;;3.75;;
59388;SDS011;51830;45.202;19.720;2022-09-02T02:22:46;17.48;;;4.15;;
59388;SDS011;51830;45.202;19.720;2022-09-02T02:25:17;19.33;;;3.63;;
59388;SDS011;51830;45.202;19.720;2022-09-02T02:27:46;16.80;;;4.30;;
59388;SDS011;51830;45.202;19.720;2022-09-02T02:30:17;15.10;;;4.07;;
59388;SDS011;51830;45.202;19.720;2022-09-02T02:32:47;14.90;;;4.22;;
59388;SDS011;51830;45.202;19.720;2022-09-02T02:35:17;13.13;;;3.58;;
59388;SDS011;51830;45.202;19.720;2022-09-02T02:37:48;14.27;;;4.10;;
59388;SDS011;51830;45.202;19.720;2022-09-02T02:40:19;12.88;;;3.92;;
59388;SDS011;51830;45.202;19.720;2022-09-02T02:42:50;12.90;;;3.53;;
59388;SDS011;51830;45.202;19.720;2022-09-02T02:45:27;16.58;;;3.85;;
59388;SDS011;51830;45.202;19.720;2022-09-02T02:47:57;14.57;;;3.78;;
59388;SDS011;51830;45.202;19.720;2022-09-02T02:50:27;17.92;;;4.10;;
59388;SDS011;51830;45.202;19.720;2022-09-02T02:52:56;14.07;;;3.75;;
59388;SDS011;51830;45.202;19.720;2022-09-02T02:55:29;13.40;;;4.00;;
59388;SDS011;51830;45.202;19.720;2022-09-02T02:57:59;14.88;;;4.18;;
59388;SDS011;51830;45.202;19.720;2022-09-02T03:00:30;15.48;;;3.83;;
59388;SDS011;51830;45.202;19.720;2022-09-02T03:03:03;14.93;;;4.00;;
59388;SDS011;51830;45.202;19.720;2022-09-02T03:05:33;14.98;;;3.65;;
59388;SDS011;51830;45.202;19.720;2022-09-02T03:08:06;13.32;;;3.35;;
59388;SDS011;51830;45.202;19.720;2022-09-02T03:10:37;13.00;;;3.67;;
59388;SDS011;51830;45.202;19.720;2022-09-02T03:15:40;11.77;;;3.15;;
59388;SDS011;51830;45.202;19.720;2022-09-02T03:18:10;13.90;;;3.95;;
59388;SDS011;51830;45.202;19.720;2022-09-02T03:20:40;13.25;;;3.50;;
59388;SDS011;51830;45.202;19.720;2022-09-02T03:23:11;12.18;;;3.58;;
59388;SDS011;51830;45.202;19.720;2022-09-02T03:25:42;12.82;;;3.85;;
59388;SDS011;51830;45.202;19.720;2022-09-02T03:28:12;13.88;;;3.78;;
59388;SDS011;51830;45.202;19.720;2022-09-02T03:30:46;13.55;;;3.80;;
59388;SDS011;51830;45.202;19.720;2022-09-02T03:33:16;15.05;;;3.42;;
59388;SDS011;51830;45.202;19.720;2022-09-02T03:35:46;14.57;;;3.72;;
59388;SDS011;51830;45.202;19.720;2022-09-02T03:38:18;13.23;;;3.65;;
59388;SDS011;51830;45.202;19.720;2022-09-02T03:40:49;12.50;;;3.60;;
59388;SDS011;51830;45.202;19.720;2022-09-02T03:43:21;13.90;;;3.85;;
59388;SDS011;51830;45.202;19.720;2022-09-02T03:45:51;14.77;;;3.80;;
59388;SDS011;51830;45.202;19.720;2022-09-02T03:48:21;14.20;;;3.70;;
59388;SDS011;51830;45.202;19.720;2022-09-02T03:50:53;13.65;;;3.72;;
59388;SDS011;51830;45.202;19.720;2022-09-02T03:53:23;12.05;;;3.42;;
59388;SDS011;51830;45.202;19.720;2022-09-02T03:55:54;12.18;;;3.60;;
59388;SDS011;51830;45.202;19.720;2022-09-02T03:58:24;13.13;;;3.47;;
59388;SDS011;51830;45.202;19.720;2022-09-02T04:00:56;12.45;;;3.40;;
59388;SDS011;51830;45.202;19.720;2022-09-02T04:03:29;12.10;;;3.38;;
59388;SDS011;51830;45.202;19.720;2022-09-02T04:05:59;14.02;;;3.95;;
59388;SDS011;51830;45.202;19.720;2022-09-02T04:08:29;12.68;;;3.30;;
59388;SDS011;51830;45.202;19.720;2022-09-02T04:11:03;15.32;;;3.63;;
59388;SDS011;51830;45.202;19.720;2022-09-02T04:13:35;13.02;;;3.65;;
59388;SDS011;51830;45.202;19.720;2022-09-02T04:16:06;21.10;;;3.88;;
59388;SDS011;51830;45.202;19.720;2022-09-02T04:18:36;17.00;;;4.28;;
59388;SDS011;51830;45.202;19.720;2022-09-02T04:21:09;14.75;;;3.88;;
59388;SDS011;51830;45.202;19.720;2022-09-02T04:23:39;13.23;;;3.22;;
59388;SDS011;51830;45.202;19.720;2022-09-02T04:26:12;16.45;;;3.80;;
59388;SDS011;51830;45.202;19.720;2022-09-02T04:28:43;14.13;;;3.35;;
59388;SDS011;51830;45.202;19.720;2022-09-02T04:31:16;13.73;;;3.55;;
59388;SDS011;51830;45.202;19.720;2022-09-02T04:33:48;12.85;;;3.42;;
59388;SDS011;51830;45.202;19.720;2022-09-02T04:36:19;12.75;;;3.65;;
59388;SDS011;51830;45.202;19.720;2022-09-02T04:38:52;12.88;;;3.70;;
59388;SDS011;51830;45.202;19.720;2022-09-02T04:41:23;12.32;;;3.83;;
59388;SDS011;51830;45.202;19.720;2022-09-02T04:43:56;14.55;;;3.63;;
59388;SDS011;51830;45.202;19.720;2022-09-02T04:46:26;12.00;;;3.25;;
59388;SDS011;51830;45.202;19.720;2022-09-02T04:48:56;12.57;;;3.55;;
59388;SDS011;51830;45.202;19.720;2022-09-02T04:51:29;13.75;;;3.40;;
59388;SDS011;51830;45.202;19.720;2022-09-02T04:53:59;15.60;;;3.67;;
59388;SDS011;51830;45.202;19.720;2022-09-02T04:56:31;11.63;;;3.40;;
59388;SDS011;51830;45.202;19.720;2022-09-02T04:59:01;11.73;;;3.33;;
59388;SDS011;51830;45.202;19.720;2022-09-02T05:01:34;17.65;;;3.80;;
59388;SDS011;51830;45.202;19.720;2022-09-02T05:06:37;12.43;;;3.55;;
59388;SDS011;51830;45.202;19.720;2022-09-02T05:09:07;11.43;;;3.10;;
59388;SDS011;51830;45.202;19.720;2022-09-02T05:11:40;15.50;;;3.47;;
59388;SDS011;51830;45.202;19.720;2022-09-02T05:16:41;10.68;;;3.15;;
59388;SDS011;51830;45.202;19.720;2022-09-02T05:19:13;11.27;;;3.20;;
59388;SDS011;51830;45.202;19.720;2022-09-02T05:21:46;10.85;;;3.17;;
59388;SDS011;51830;45.202;19.720;2022-09-02T05:26:48;12.43;;;3.50;;
59388;SDS011;51830;45.202;19.720;2022-09-02T05:29:18;10.00;;;2.80;;
59388;SDS011;51830;45.202;19.720;2022-09-02T05:31:48;14.77;;;3.45;;
59388;SDS011;51830;45.202;19.720;2022-09-02T05:34:18;12.98;;;3.55;;
59388;SDS011;51830;45.202;19.720;2022-09-02T05:36:49;13.63;;;3.13;;
59388;SDS011;51830;45.202;19.720;2022-09-02T05:39:21;14.27;;;3.55;;
59388;SDS011;51830;45.202;19.720;2022-09-02T05:44:21;10.50;;;3.13;;
59388;SDS011;51830;45.202;19.720;2022-09-02T05:46:51;12.23;;;3.53;;
59388;SDS011;51830;45.202;19.720;2022-09-02T05:49:24;13.23;;;3.33;;
59388;SDS011;51830;45.202;19.720;2022-09-02T05:51:55;12.27;;;3.53;;
59388;SDS011;51830;45.202;19.720;2022-09-02T05:54:28;12.52;;;3.30;;
59388;SDS011;51830;45.202;19.720;2022-09-02T05:57:02;11.47;;;3.53;;
59388;SDS011;51830;45.202;19.720;2022-09-02T05:59:39;12.75;;;3.38;;
59388;SDS011;51830;45.202;19.720;2022-09-02T06:02:10;13.93;;;3.50;;
59388;SDS011;51830;45.202;19.720;2022-09-02T06:04:44;16.80;;;4.32;;
59388;SDS011;51830;45.202;19.720;2022-09-02T06:07:15;13.43;;;3.50;;
59388;SDS011;51830;45.202;19.720;2022-09-02T06:09:48;11.45;;;3.40;;
59388;SDS011;51830;45.202;19.720;2022-09-02T06:12:21;14.40;;;4.05;;
59388;SDS011;51830;45.202;19.720;2022-09-02T06:14:51;12.23;;;3.28;;
59388;SDS011;51830;45.202;19.720;2022-09-02T06:17:21;10.20;;;3.03;;
59388;SDS011;51830;45.202;19.720;2022-09-02T06:19:51;11.73;;;3.38;;
59388;SDS011;51830;45.202;19.720;2022-09-02T06:22:21;13.98;;;3.47;;
59388;SDS011;51830;45.202;19.720;2022-09-02T06:24:51;11.98;;;3.35;;
59388;SDS011;51830;45.202;19.720;2022-09-02T06:27:18;13.35;;;3.20;;
59388;SDS011;51830;45.202;19.720;2022-09-02T06:29:50;12.45;;;3.13;;
59388;SDS011;51830;45.202;19.720;2022-09-02T06:32:20;12.68;;;3.35;;
59388;SDS011;51830;45.202;19.720;2022-09-02T06:34:52;12.43;;;3.58;;
59388;SDS011;51830;45.202;19.720;2022-09-02T06:37:23;16.15;;;3.80;;
59388;SDS011;51830;45.202;19.720;2022-09-02T06:39:53;12.10;;;3.08;;
59388;SDS011;51830;45.202;19.720;2022-09-02T06:42:22;12.25;;;3.20;;
59388;SDS011;51830;45.202;19.720;2022-09-02T06:44:56;10.35;;;3.15;;
59388;SDS011;51830;45.202;19.720;2022-09-02T06:47:26;11.13;;;3.00;;
59388;SDS011;51830;45.202;19.720;2022-09-02T06:49:56;11.77;;;3.08;;
59388;SDS011;51830;45.202;19.720;2022-09-02T06:52:29;10.32;;;3.03;;
59388;SDS011;51830;45.202;19.720;2022-09-02T06:55:01;10.85;;;3.05;;
59388;SDS011;51830;45.202;19.720;2022-09-02T06:57:31;13.20;;;3.08;;
59388;SDS011;51830;45.202;19.720;2022-09-02T07:00:03;11.55;;;3.15;;
59388;SDS011;51830;45.202;19.720;2022-09-02T07:02:34;7.57;;;2.53;;
59388;SDS011;51830;45.202;19.720;2022-09-02T07:05:04;11.35;;;2.95;;
59388;SDS011;51830;45.202;19.720;2022-09-02T07:07:44;13.82;;;3.15;;
59388;SDS011;51830;45.202;19.720;2022-09-02T07:10:19;11.57;;;3.15;;
59388;SDS011;51830;45.202;19.720;2022-09-02T07:12:49;13.20;;;3.08;;
59388;SDS011;51830;45.202;19.720;2022-09-02T07:15:19;22.80;;;3.25;;
59388;SDS011;51830;45.202;19.720;2022-09-02T07:17:52;12.85;;;3.38;;
59388;SDS011;51830;45.202;19.720;2022-09-02T07:20:22;11.50;;;2.95;;
59388;SDS011;51830;45.202;19.720;2022-09-02T07:22:52;11.90;;;3.08;;
59388;SDS011;51830;45.202;19.720;2022-09-02T07:25:24;12.65;;;3.60;;
59388;SDS011;51830;45.202;19.720;2022-09-02T07:27:54;12.98;;;3.40;;
59388;SDS011;51830;45.202;19.720;2022-09-02T07:30:24;10.25;;;3.20;;
59388;SDS011;51830;45.202;19.720;2022-09-02T07:32:54;13.07;;;3.20;;
59388;SDS011;51830;45.202;19.720;2022-09-02T07:35:24;16.00;;;3.60;;
59388;SDS011;51830;45.202;19.720;2022-09-02T07:37:54;12.30;;;3.45;;
59388;SDS011;51830;45.202;19.720;2022-09-02T07:40:24;11.20;;;3.10;;
59388;SDS011;51830;45.202;19.720;2022-09-02T07:42:54;10.88;;;2.90;;
59388;SDS011;51830;45.202;19.720;2022-09-02T07:45:27;11.15;;;3.38;;
59388;SDS011;51830;45.202;19.720;2022-09-02T07:47:58;12.57;;;3.47;;
59388;SDS011;51830;45.202;19.720;2022-09-02T07:50:28;12.00;;;3.22;;
59388;SDS011;51830;45.202;19.720;2022-09-02T07:52:58;9.23;;;3.00;;
59388;SDS011;51830;45.202;19.720;2022-09-02T07:55:28;10.38;;;2.85;;
59388;SDS011;51830;45.202;19.720;2022-09-02T07:57:58;11.60;;;3.20;;
59388;SDS011;51830;45.202;19.720;2022-09-02T08:00:29;12.27;;;3.47;;
59388;SDS011;51830;45.202;19.720;2022-09-02T08:02:59;11.85;;;3.17;;
59388;SDS011;51830;45.202;19.720;2022-09-02T08:05:30;12.70;;;3.38;;
59388;SDS011;51830;45.202;19.720;2022-09-02T08:08:00;14.52;;;3.60;;
59388;SDS011;51830;45.202;19.720;2022-09-02T08:10:31;12.57;;;3.40;;
59388;SDS011;51830;45.202;19.720;2022-09-02T08:13:02;11.75;;;3.30;;
59388;SDS011;51830;45.202;19.720;2022-09-02T08:15:34;13.27;;;3.83;;
59388;SDS011;51830;45.202;19.720;2022-09-02T08:18:05;10.90;;;3.13;;
59388;SDS011;51830;45.202;19.720;2022-09-02T08:20:35;14.63;;;3.33;;
59388;SDS011;51830;45.202;19.720;2022-09-02T08:23:05;11.57;;;3.40;;
59388;SDS011;51830;45.202;19.720;2022-09-02T08:25:36;13.23;;;3.60;;
59388;SDS011;51830;45.202;19.720;2022-09-02T08:28:06;13.20;;;3.58;;
59388;SDS011;51830;45.202;19.720;2022-09-02T08:30:36;10.18;;;3.20;;
59388;SDS011;51830;45.202;19.720;2022-09-02T08:33:06;10.40;;;3.03;;
59388;SDS011;51830;45.202;19.720;2022-09-02T08:35:36;14.40;;;3.20;;
59388;SDS011;51830;45.202;19.720;2022-09-02T08:38:06;11.77;;;3.13;;
59388;SDS011;51830;45.202;19.720;2022-09-02T08:40:38;11.63;;;2.95;;
59388;SDS011;51830;45.202;19.720;2022-09-02T08:45:39;10.10;;;2.97;;
59388;SDS011;51830;45.202;19.720;2022-09-02T08:48:31;11.40;;;2.92;;
59388;SDS011;51830;45.202;19.720;2022-09-02T08:51:04;14.75;;;3.22;;
59388;SDS011;51830;45.202;19.720;2022-09-02T08:56:27;11.82;;;3.40;;
59388;SDS011;51830;45.202;19.720;2022-09-02T08:58:59;11.93;;;3.15;;
59388;SDS011;51830;45.202;19.720;2022-09-02T09:01:42;11.68;;;3.17;;
59388;SDS011;51830;45.202;19.720;2022-09-02T09:10:42;14.15;;;3.38;;
59388;SDS011;51830;45.202;19.720;2022-09-02T09:15:43;14.95;;;3.38;;
59388;SDS011;51830;45.202;19.720;2022-09-02T09:18:18;13.50;;;3.65;;
59388;SDS011;51830;45.202;19.720;2022-09-02T09:20:49;12.80;;;3.60;;
59388;SDS011;51830;45.202;19.720;2022-09-02T09:25:51;11.32;;;3.17;;
59388;SDS011;51830;45.202;19.720;2022-09-02T09:28:25;12.90;;;3.75;;
59388;SDS011;51830;45.202;19.720;2022-09-02T09:30:58;12.57;;;3.58;;
59388;SDS011;51830;45.202;19.720;2022-09-02T09:33:29;12.18;;;3.33;;
59388;SDS011;51830;45.202;19.720;2022-09-02T09:35:59;12.95;;;3.55;;
59388;SDS011;51830;45.202;19.720;2022-09-02T09:38:34;12.95;;;3.70;;
59388;SDS011;51830;45.202;19.720;2022-09-02T09:41:09;11.88;;;3.35;;
59388;SDS011;51830;45.202;19.720;2022-09-02T09:43:42;12.18;;;3.75;;
59388;SDS011;51830;45.202;19.720;2022-09-02T09:48:52;11.40;;;3.58;;
59388;SDS011;51830;45.202;19.720;2022-09-02T09:51:22;12.65;;;3.60;;
59388;SDS011;51830;45.202;19.720;2022-09-02T09:53:54;13.02;;;3.55;;
59388;SDS011;51830;45.202;19.720;2022-09-02T09:56:43;11.20;;;3.33;;
59388;SDS011;51830;45.202;19.720;2022-09-02T10:01:58;13.13;;;3.80;;
59388;SDS011;51830;45.202;19.720;2022-09-02T10:04:29;14.15;;;3.85;;
59388;SDS011;51830;45.202;19.720;2022-09-02T10:07:00;13.63;;;3.70;;
59388;SDS011;51830;45.202;19.720;2022-09-02T10:17:22;15.48;;;4.32;;
59388;SDS011;51830;45.202;19.720;2022-09-02T10:31:27;13.15;;;3.72;;
59388;SDS011;51830;45.202;19.720;2022-09-02T10:47:52;15.20;;;4.38;;
59388;SDS011;51830;45.202;19.720;2022-09-02T10:58:14;14.10;;;4.35;;
59388;SDS011;51830;45.202;19.720;2022-09-02T11:00:49;14.80;;;4.40;;
59388;SDS011;51830;45.202;19.720;2022-09-02T11:03:32;14.00;;;4.03;;
59388;SDS011;51830;45.202;19.720;2022-09-02T11:06:08;14.55;;;4.65;;
59388;SDS011;51830;45.202;19.720;2022-09-02T11:11:18;14.63;;;4.78;;
59388;SDS011;51830;45.202;19.720;2022-09-02T11:16:24;14.07;;;4.05;;
59388;SDS011;51830;45.202;19.720;2022-09-02T11:35:23;14.25;;;4.03;;
59388;SDS011;51830;45.202;19.720;2022-09-02T11:40:35;15.50;;;4.65;;
59388;SDS011;51830;45.202;19.720;2022-09-02T11:43:26;12.82;;;3.80;;
59388;SDS011;51830;45.202;19.720;2022-09-02T11:48:58;12.32;;;3.85;;
59388;SDS011;51830;45.202;19.720;2022-09-02T11:51:39;11.88;;;3.58;;
59388;SDS011;51830;45.202;19.720;2022-09-02T11:54:13;15.32;;;4.05;;
59388;SDS011;51830;45.202;19.720;2022-09-02T11:56:46;13.25;;;3.70;;
59388;SDS011;51830;45.202;19.720;2022-09-02T12:01:50;12.18;;;3.65;;
59388;SDS011;51830;45.202;19.720;2022-09-02T12:04:22;12.70;;;3.88;;
59388;SDS011;51830;45.202;19.720;2022-09-02T12:09:53;13.68;;;3.78;;
59388;SDS011;51830;45.202;19.720;2022-09-02T12:23:03;13.68;;;3.78;;
59388;SDS011;51830;45.202;19.720;2022-09-02T12:33:33;16.25;;;4.13;;
59388;SDS011;51830;45.202;19.720;2022-09-02T12:36:04;13.80;;;4.00;;
59388;SDS011;51830;45.202;19.720;2022-09-02T12:38:40;14.68;;;3.80;;
59388;SDS011;51830;45.202;19.720;2022-09-02T12:41:16;14.32;;;3.83;;
59388;SDS011;51830;45.202;19.720;2022-09-02T12:51:54;21.83;;;3.90;;
59388;SDS011;51830;45.202;19.720;2022-09-02T12:57:06;15.00;;;3.40;;
59388;SDS011;51830;45.202;19.720;2022-09-02T12:59:37;12.55;;;3.20;;
59388;SDS011;51830;45.202;19.720;2022-09-02T13:31:59;13.48;;;3.50;;
59388;SDS011;51830;45.202;19.720;2022-09-02T13:34:29;12.98;;;3.70;;
59388;SDS011;51830;45.202;19.720;2022-09-02T13:37:00;14.15;;;3.70;;
59388;SDS011;51830;45.202;19.720;2022-09-02T13:39:30;16.23;;;3.53;;
59388;SDS011;51830;45.202;19.720;2022-09-02T13:42:11;10.95;;;2.78;;
59388;SDS011;51830;45.202;19.720;2022-09-02T13:44:45;11.27;;;3.10;;
59388;SDS011;51830;45.202;19.720;2022-09-02T13:47:16;9.45;;;2.78;;
59388;SDS011;51830;45.202;19.720;2022-09-02T13:49:48;13.90;;;3.17;;
59388;SDS011;51830;45.202;19.720;2022-09-02T13:52:20;10.25;;;2.90;;
59388;SDS011;51830;45.202;19.720;2022-09-02T13:54:52;16.42;;;3.45;;
59388;SDS011;51830;45.202;19.720;2022-09-02T13:57:24;13.23;;;3.33;;
59388;SDS011;51830;45.202;19.720;2022-09-02T13:59:55;11.40;;;3.10;;
59388;SDS011;51830;45.202;19.720;2022-09-02T14:02:27;12.38;;;2.90;;
59388;SDS011;51830;45.202;19.720;2022-09-02T14:05:29;11.93;;;3.30;;
59388;SDS011;51830;45.202;19.720;2022-09-02T14:07:57;12.73;;;2.85;;
59388;SDS011;51830;45.202;19.720;2022-09-02T14:10:27;9.65;;;2.72;;
59388;SDS011;51830;45.202;19.720;2022-09-02T14:13:00;12.35;;;3.15;;
59388;SDS011;51830;45.202;19.720;2022-09-02T14:15:32;11.25;;;2.95;;
59388;SDS011;51830;45.202;19.720;2022-09-02T14:23:36;10.65;;;2.75;;
59388;SDS011;51830;45.202;19.720;2022-09-02T14:26:07;11.50;;;2.78;;
59388;SDS011;51830;45.202;19.720;2022-09-02T14:28:37;10.50;;;3.25;;
59388;SDS011;51830;45.202;19.720;2022-09-02T14:31:08;12.20;;;2.90;;
59388;SDS011;51830;45.202;19.720;2022-09-02T14:33:56;10.13;;;2.58;;
59388;SDS011;51830;45.202;19.720;2022-09-02T14:39:12;12.88;;;3.35;;
59388;SDS011;51830;45.202;19.720;2022-09-02T14:41:45;13.82;;;3.30;;
59388;SDS011;51830;45.202;19.720;2022-09-02T14:44:28;10.95;;;2.97;;
59388;SDS011;51830;45.202;19.720;2022-09-02T14:49:38;10.35;;;2.80;;
59388;SDS011;51830;45.202;19.720;2022-09-02T14:52:19;14.80;;;3.75;;
59388;SDS011;51830;45.202;19.720;2022-09-02T14:54:50;12.07;;;3.40;;
59388;SDS011;51830;45.202;19.720;2022-09-02T14:59:57;12.82;;;3.53;;
59388;SDS011;51830;45.202;19.720;2022-09-02T15:04:58;13.60;;;3.55;;
59388;SDS011;51830;45.202;19.720;2022-09-02T15:07:29;14.27;;;3.28;;
59388;SDS011;51830;45.202;19.720;2022-09-02T15:09:59;13.02;;;3.28;;
59388;SDS011;51830;45.202;19.720;2022-09-02T15:12:29;12.13;;;3.03;;
59388;SDS011;51830;45.202;19.720;2022-09-02T15:15:00;11.87;;;3.20;;
59388;SDS011;51830;45.202;19.720;2022-09-02T15:17:30;11.85;;;3.08;;
59388;SDS011;51830;45.202;19.720;2022-09-02T15:20:00;10.48;;;3.00;;
59388;SDS011;51830;45.202;19.720;2022-09-02T15:22:31;11.93;;;3.10;;
59388;SDS011;51830;45.202;19.720;2022-09-02T15:25:01;13.07;;;2.90;;
59388;SDS011;51830;45.202;19.720;2022-09-02T15:27:34;10.32;;;2.85;;
59388;SDS011;51830;45.202;19.720;2022-09-02T15:30:05;11.50;;;2.92;;
59388;SDS011;51830;45.202;19.720;2022-09-02T15:32:39;11.75;;;3.28;;
59388;SDS011;51830;45.202;19.720;2022-09-02T15:35:09;13.23;;;3.22;;
59388;SDS011;51830;45.202;19.720;2022-09-02T15:37:40;11.48;;;2.83;;
59388;SDS011;51830;45.202;19.720;2022-09-02T15:40:10;9.63;;;2.83;;
59388;SDS011;51830;45.202;19.720;2022-09-02T15:42:40;10.60;;;2.80;;
59388;SDS011;51830;45.202;19.720;2022-09-02T15:45:10;12.15;;;3.10;;
59388;SDS011;51830;45.202;19.720;2022-09-02T15:47:40;14.32;;;3.20;;
59388;SDS011;51830;45.202;19.720;2022-09-02T15:50:10;11.70;;;3.15;;
59388;SDS011;51830;45.202;19.720;2022-09-02T15:52:40;16.05;;;3.20;;
59388;SDS011;51830;45.202;19.720;2022-09-02T15:55:16;13.52;;;3.30;;
59388;SDS011;51830;45.202;19.720;2022-09-02T15:57:46;13.40;;;3.30;;
59388;SDS011;51830;45.202;19.720;2022-09-02T16:00:17;11.73;;;3.03;;
59388;SDS011;51830;45.202;19.720;2022-09-02T16:02:47;14.20;;;3.25;;
59388;SDS011;51830;45.202;19.720;2022-09-02T16:05:18;13.73;;;3.33;;
59388;SDS011;51830;45.202;19.720;2022-09-02T16:07:49;11.52;;;3.25;;
59388;SDS011;51830;45.202;19.720;2022-09-02T16:10:20;11.70;;;3.35;;
59388;SDS011;51830;45.202;19.720;2022-09-02T16:12:50;11.25;;;3.17;;
59388;SDS011;51830;45.202;19.720;2022-09-02T16:15:20;12.95;;;3.72;;
59388;SDS011;51830;45.202;19.720;2022-09-02T16:17:50;14.63;;;3.53;;
59388;SDS011;51830;45.202;19.720;2022-09-02T16:20:20;13.18;;;3.95;;
59388;SDS011;51830;45.202;19.720;2022-09-02T16:22:51;14.55;;;3.80;;
59388;SDS011;51830;45.202;19.720;2022-09-02T16:25:21;15.13;;;4.30;;
59388;SDS011;51830;45.202;19.720;2022-09-02T16:27:53;17.02;;;4.30;;
59388;SDS011;51830;45.202;19.720;2022-09-02T16:30:26;17.48;;;4.22;;
59388;SDS011;51830;45.202;19.720;2022-09-02T16:32:57;13.90;;;3.85;;
59388;SDS011;51830;45.202;19.720;2022-09-02T16:35:27;14.85;;;4.00;;
59388;SDS011;51830;45.202;19.720;2022-09-02T16:37:57;12.40;;;3.42;;
59388;SDS011;51830;45.202;19.720;2022-09-02T16:40:27;14.10;;;3.45;;
59388;SDS011;51830;45.202;19.720;2022-09-02T16:42:57;12.90;;;3.65;;
59388;SDS011;51830;45.202;19.720;2022-09-02T16:45:27;14.13;;;4.15;;
59388;SDS011;51830;45.202;19.720;2022-09-02T16:47:57;13.02;;;3.38;;
59388;SDS011;51830;45.202;19.720;2022-09-02T16:50:28;13.63;;;3.42;;
59388;SDS011;51830;45.202;19.720;2022-09-02T16:52:58;19.15;;;3.95;;
59388;SDS011;51830;45.202;19.720;2022-09-02T16:55:28;17.58;;;3.75;;
59388;SDS011;51830;45.202;19.720;2022-09-02T16:57:58;14.80;;;3.90;;
59388;SDS011;51830;45.202;19.720;2022-09-02T17:00:30;18.55;;;3.90;;
59388;SDS011;51830;45.202;19.720;2022-09-02T17:03:00;17.20;;;4.18;;
59388;SDS011;51830;45.202;19.720;2022-09-02T17:05:30;18.27;;;4.10;;
59388;SDS011;51830;45.202;19.720;2022-09-02T17:07:58;16.30;;;4.30;;
59388;SDS011;51830;45.202;19.720;2022-09-02T17:10:29;19.73;;;3.75;;
59388;SDS011;51830;45.202;19.720;2022-09-02T17:13:00;17.13;;;4.10;;
59388;SDS011;51830;45.202;19.720;2022-09-02T17:15:30;22.52;;;3.78;;
59388;SDS011;51830;45.202;19.720;2022-09-02T17:18:00;13.40;;;3.65;;
59388;SDS011;51830;45.202;19.720;2022-09-02T17:20:30;12.02;;;3.60;;
59388;SDS011;51830;45.202;19.720;2022-09-02T17:23:00;12.48;;;3.65;;
59388;SDS011;51830;45.202;19.720;2022-09-02T17:25:32;12.45;;;3.53;;
59388;SDS011;51830;45.202;19.720;2022-09-02T17:28:02;13.43;;;3.70;;
59388;SDS011;51830;45.202;19.720;2022-09-02T17:30:32;13.77;;;3.58;;
59388;SDS011;51830;45.202;19.720;2022-09-02T17:33:02;14.65;;;4.30;;
59388;SDS011;51830;45.202;19.720;2022-09-02T17:35:32;11.73;;;3.30;;
59388;SDS011;51830;45.202;19.720;2022-09-02T17:38:02;16.25;;;3.55;;
59388;SDS011;51830;45.202;19.720;2022-09-02T17:40:32;13.10;;;3.30;;
59388;SDS011;51830;45.202;19.720;2022-09-02T17:43:21;13.05;;;3.45;;
59388;SDS011;51830;45.202;19.720;2022-09-02T17:45:52;15.85;;;4.20;;
59388;SDS011;51830;45.202;19.720;2022-09-02T17:48:35;18.85;;;3.80;;